createdAt,value
2022-10-09T00:01:10.511Z,12.75
2022-10-09T00:03:39.588Z,5.50
2022-10-09T00:06:08.645Z,12.00
2022-10-09T00:08:36.763Z,12.50
2022-10-09T00:11:06.147Z,15.25
2022-10-09T00:13:34.328Z,17.00
2022-10-09T00:16:03.671Z,12.00
2022-10-09T00:18:33.545Z,9.25
2022-10-09T00:21:01.688Z,9.25
2022-10-09T00:23:30.108Z,9.75
2022-10-09T00:25:58.934Z,9.00
2022-10-09T00:28:28.573Z,10.25
2022-10-09T00:30:56.936Z,9.00
2022-10-09T00:33:25.164Z,8.25
2022-10-09T00:35:54.665Z,3.25
2022-10-09T00:38:22.748Z,9.00
2022-10-09T00:40:50.834Z,7.00
2022-10-09T00:43:20.250Z,9.75
2022-10-09T00:45:51.337Z,10.00
2022-10-09T00:48:20.092Z,9.00
2022-10-09T00:50:50.910Z,11.00
2022-10-09T00:53:22.517Z,11.50
2022-10-09T00:55:50.962Z,11.00
2022-10-09T00:58:19.735Z,9.50
2022-10-09T01:00:47.820Z,10.00
2022-10-09T01:03:15.895Z,9.00
2022-10-09T01:05:51.902Z,11.00
2022-10-09T01:08:26.145Z,9.50
2022-10-09T01:11:00.174Z,11.50
2022-10-09T01:13:31.280Z,9.00
2022-10-09T01:16:01.517Z,10.00
2022-10-09T01:18:33.504Z,8.00
2022-10-09T01:21:04.202Z,8.00
2022-10-09T01:23:44.164Z,7.00
2022-10-09T01:26:27.195Z,9.25
2022-10-09T01:28:58.577Z,9.00
2022-10-09T01:31:29.829Z,10.25
2022-10-09T01:33:58.791Z,9.50
2022-10-09T01:36:27.824Z,8.25
2022-10-09T01:38:57.179Z,10.75
2022-10-09T01:41:25.572Z,9.00
2022-10-09T01:43:53.627Z,9.25
2022-10-09T01:46:24.705Z,11.00
2022-10-09T01:48:56.617Z,11.50
2022-10-09T01:51:27.775Z,11.00
2022-10-09T01:53:56.147Z,10.25
2022-10-09T01:56:25.507Z,11.00
2022-10-09T01:58:55.479Z,8.75
2022-10-09T02:01:27.538Z,10.50
2022-10-09T02:03:57.005Z,11.00
2022-10-09T02:06:26.487Z,8.00
2022-10-09T02:08:55.480Z,10.00
2022-10-09T02:11:25.352Z,12.00
2022-10-09T02:13:54.755Z,9.00
2022-10-09T02:16:29.437Z,12.25
2022-10-09T02:18:59.898Z,10.00
2022-10-09T02:21:30.602Z,9.25
2022-10-09T02:24:00.021Z,10.50
2022-10-09T02:26:28.331Z,9.50
2022-10-09T02:28:56.411Z,10.50
2022-10-09T02:31:27.642Z,8.75
2022-10-09T02:33:57.678Z,10.00
2022-10-09T02:36:26.367Z,12.75
2022-10-09T02:38:55.749Z,10.50
2022-10-09T02:41:24.223Z,9.00
2022-10-09T02:43:52.773Z,10.50
2022-10-09T02:46:22.402Z,13.00
2022-10-09T02:48:52.091Z,10.75
2022-10-09T02:51:20.221Z,7.50
2022-10-09T02:53:48.375Z,13.00
2022-10-09T02:56:16.503Z,10.25
2022-10-09T02:58:44.523Z,13.50
2022-10-09T03:01:12.742Z,12.25
2022-10-09T03:03:40.752Z,12.00
2022-10-09T03:06:11.748Z,10.50
2022-10-09T03:08:40.822Z,12.00
2022-10-09T03:11:09.148Z,11.50
2022-10-09T03:13:37.258Z,4.50
2022-10-09T03:16:05.560Z,7.50
2022-10-09T03:18:33.792Z,7.50
2022-10-09T03:21:01.912Z,10.00
2022-10-09T03:23:31.390Z,7.00
2022-10-09T03:25:59.778Z,4.25
2022-10-09T03:28:28.409Z,10.25
2022-10-09T03:30:57.246Z,8.00
2022-10-09T03:33:25.370Z,9.25
2022-10-09T03:35:53.453Z,10.00
2022-10-09T03:38:21.663Z,5.75
2022-10-09T03:40:51.239Z,9.00
2022-10-09T03:43:19.389Z,12.00
2022-10-09T03:45:47.970Z,8.25
2022-10-09T03:48:16.409Z,9.50
2022-10-09T03:50:44.506Z,8.75
2022-10-09T03:53:13.364Z,10.00
2022-10-09T03:55:41.750Z,9.00
2022-10-09T03:58:11.275Z,7.00
2022-10-09T04:00:39.386Z,8.00
2022-10-09T04:03:07.592Z,7.00
2022-10-09T04:05:35.978Z,8.75
2022-10-09T04:08:04.216Z,8.50
2022-10-09T04:10:34.666Z,10.00
2022-10-09T04:13:02.835Z,9.67
2022-10-09T04:15:32.575Z,8.25
2022-10-09T04:18:00.717Z,10.75
2022-10-09T04:20:29.012Z,5.00
2022-10-09T04:22:57.084Z,8.50
2022-10-09T04:25:25.159Z,11.00
2022-10-09T04:27:53.355Z,6.50
2022-10-09T04:30:21.511Z,9.00
2022-10-09T04:32:51.319Z,10.00
2022-10-09T04:35:19.721Z,9.00
2022-10-09T04:37:47.931Z,8.50
2022-10-09T04:40:16.159Z,6.00
2022-10-09T04:42:44.422Z,11.25
2022-10-09T04:45:12.591Z,10.50
2022-10-09T04:47:40.957Z,14.00
2022-10-09T04:50:11.355Z,9.25
2022-10-09T04:52:53.539Z,10.25
2022-10-09T04:55:21.897Z,10.00
2022-10-09T04:57:50.247Z,13.00
2022-10-09T05:00:18.774Z,10.00
2022-10-09T05:02:47.272Z,11.50
2022-10-09T05:05:17.190Z,10.50
2022-10-09T05:07:45.302Z,8.00
2022-10-09T05:10:13.661Z,8.75
2022-10-09T05:12:44.117Z,10.75
2022-10-09T05:15:12.367Z,7.00
2022-10-09T05:17:40.582Z,9.00
2022-10-09T05:20:08.937Z,5.50
2022-10-09T05:22:38.483Z,9.75
2022-10-09T05:25:07.344Z,8.25
2022-10-09T05:27:35.430Z,8.75
2022-10-09T05:30:03.658Z,10.00
2022-10-09T05:32:32.365Z,8.50
2022-10-09T05:35:01.784Z,8.75
2022-10-09T05:37:31.712Z,6.25
2022-10-09T05:40:01.191Z,7.50
2022-10-09T05:42:32.486Z,8.75
2022-10-09T05:45:00.807Z,9.50
2022-10-09T05:47:30.908Z,10.00
2022-10-09T05:49:59.035Z,7.25
2022-10-09T05:52:27.122Z,11.00
2022-10-09T05:54:57.210Z,7.75
2022-10-09T05:57:27.574Z,9.00
2022-10-09T05:59:56.009Z,10.25
2022-10-09T06:02:24.308Z,9.50
2022-10-09T06:04:52.484Z,9.00
2022-10-09T06:07:20.581Z,7.00
2022-10-09T06:09:48.726Z,10.25
2022-10-09T06:12:16.933Z,7.75
2022-10-09T06:14:46.657Z,10.00
2022-10-09T06:17:15.023Z,10.00
2022-10-09T06:19:43.121Z,4.50
2022-10-09T06:22:11.148Z,8.00
2022-10-09T06:24:39.435Z,11.00
2022-10-09T06:27:07.696Z,9.00
2022-10-09T06:29:36.231Z,7.50
2022-10-09T06:32:06.684Z,11.25
2022-10-09T06:34:35.106Z,10.00
2022-10-09T06:37:03.345Z,6.00
2022-10-09T06:39:32.049Z,10.00
2022-10-09T06:42:00.384Z,8.25
2022-10-09T06:44:39.721Z,7.75
2022-10-09T06:47:09.305Z,7.25
2022-10-09T06:49:37.681Z,8.00
2022-10-09T06:52:05.940Z,5.50
2022-10-09T06:54:34.660Z,8.50
2022-10-09T06:57:02.818Z,2.75
2022-10-09T06:59:31.431Z,8.00
2022-10-09T07:02:01.426Z,7.75
2022-10-09T07:04:31.520Z,10.75
2022-10-09T07:06:59.797Z,5.00
2022-10-09T07:09:32.890Z,7.50
2022-10-09T07:12:04.017Z,11.25
2022-10-09T07:14:39.022Z,12.50
2022-10-09T07:17:09.331Z,8.50
2022-10-09T07:19:39.144Z,10.00
2022-10-09T07:22:11.539Z,9.00
2022-10-09T07:24:40.355Z,11.00
2022-10-09T07:27:08.806Z,22.75
2022-10-09T07:29:37.274Z,9.75
2022-10-09T07:32:10.223Z,15.00
2022-10-09T07:34:40.556Z,9.50
2022-10-09T07:37:09.431Z,7.50
2022-10-09T07:39:42.878Z,32.50
2022-10-09T07:42:13.598Z,10.00
2022-10-09T07:44:42.107Z,8.00
2022-10-09T07:47:12.980Z,6.50
2022-10-09T07:49:42.627Z,8.00
2022-10-09T07:52:10.842Z,10.00
2022-10-09T07:54:39.071Z,8.00
2022-10-09T07:57:07.316Z,7.00
2022-10-09T07:59:35.600Z,7.00
2022-10-09T08:02:04.431Z,8.00
2022-10-09T08:04:32.729Z,9.75
2022-10-09T08:07:02.665Z,7.25
2022-10-09T08:09:31.183Z,8.25
2022-10-09T08:12:00.304Z,8.00
2022-10-09T08:14:28.929Z,8.25
2022-10-09T08:16:58.403Z,7.50
2022-10-09T08:19:28.318Z,7.75
2022-10-09T08:22:03.147Z,8.75
2022-10-09T08:24:34.877Z,7.00
2022-10-09T08:27:03.315Z,7.00
2022-10-09T08:29:34.593Z,5.00
2022-10-09T08:32:04.842Z,8.75
2022-10-09T08:34:33.183Z,6.00
2022-10-09T08:37:01.620Z,6.00
2022-10-09T08:39:31.398Z,6.75
2022-10-09T08:42:03.490Z,6.75
2022-10-09T08:44:34.330Z,6.25
2022-10-09T08:47:05.194Z,7.75
2022-10-09T08:49:40.360Z,7.00
2022-10-09T08:52:17.952Z,6.00
2022-10-09T08:54:46.488Z,4.00
2022-10-09T08:57:18.011Z,4.50
2022-10-09T08:59:54.847Z,6.00
2022-10-09T09:02:42.951Z,5.00
2022-10-09T09:09:37.378Z,7.25
2022-10-09T09:12:23.329Z,2.50
2022-10-09T09:15:39.131Z,5.50
2022-10-09T09:21:51.300Z,6.50
2022-10-09T09:24:21.040Z,6.75
2022-10-09T09:26:53.185Z,2.40
2022-10-09T09:29:23.689Z,3.00
2022-10-09T09:31:56.624Z,5.75
2022-10-09T09:34:36.035Z,6.00
2022-10-09T09:37:04.656Z,3.75
2022-10-09T09:42:23.297Z,3.50
2022-10-09T09:44:56.319Z,4.00
2022-10-09T09:47:29.254Z,4.40
2022-10-09T09:49:58.924Z,5.00
2022-10-09T09:52:28.516Z,5.40
2022-10-09T09:54:58.145Z,3.00
2022-10-09T09:57:32.172Z,4.50
2022-10-09T10:00:21.168Z,3.75
2022-10-09T10:03:05.428Z,5.00
2022-10-09T10:05:37.181Z,6.00
2022-10-09T10:08:23.283Z,4.50
2022-10-09T10:10:53.291Z,6.00
2022-10-09T10:13:22.787Z,6.40
2022-10-09T10:15:53.147Z,1.50
2022-10-09T10:18:24.458Z,4.75
2022-10-09T10:20:54.138Z,7.00
2022-10-09T10:23:27.534Z,6.50
2022-10-09T10:25:58.502Z,3.50
2022-10-09T10:28:34.578Z,5.00
2022-10-09T10:31:04.403Z,6.25
2022-10-09T10:33:40.751Z,6.50
2022-10-09T10:36:12.263Z,9.00
2022-10-09T10:38:44.333Z,6.60
2022-10-09T10:41:18.007Z,4.75
2022-10-09T10:43:52.045Z,6.00
2022-10-09T10:46:24.571Z,6.00
2022-10-09T10:48:54.479Z,6.50
2022-10-09T10:51:39.618Z,7.50
2022-10-09T10:54:15.959Z,7.00
2022-10-09T10:56:47.241Z,4.75
2022-10-09T10:59:25.745Z,4.00
2022-10-09T11:02:04.055Z,4.60
2022-10-09T11:04:45.485Z,3.00
2022-10-09T11:07:20.053Z,5.75
2022-10-09T11:09:54.700Z,7.00
2022-10-09T11:12:47.374Z,5.00
2022-10-09T11:15:25.700Z,5.75
2022-10-09T11:17:57.838Z,3.00
2022-10-09T11:20:44.922Z,12.75
2022-10-09T11:23:18.653Z,8.75
2022-10-09T11:25:52.246Z,10.25
2022-10-09T11:28:25.528Z,13.75
2022-10-09T11:30:55.889Z,8.50
2022-10-09T11:33:37.253Z,6.25
2022-10-09T11:36:13.945Z,11.75
2022-10-09T11:38:45.071Z,10.00
2022-10-09T11:41:13.861Z,9.00
2022-10-09T11:43:47.315Z,6.80
2022-10-09T11:46:20.270Z,6.40
2022-10-09T11:48:50.121Z,6.75
2022-10-09T11:51:24.709Z,9.50
2022-10-09T11:53:53.768Z,7.00
2022-10-09T11:56:23.638Z,6.75
2022-10-09T11:58:59.062Z,7.00
2022-10-09T12:01:35.215Z,8.00
2022-10-09T12:04:06.798Z,10.00
2022-10-09T12:06:47.749Z,11.00
2022-10-09T12:09:22.302Z,12.50
2022-10-09T12:12:01.871Z,13.25
2022-10-09T12:14:38.784Z,11.25
2022-10-09T12:17:17.761Z,7.25
2022-10-09T12:19:46.485Z,21.00
2022-10-09T12:22:18.454Z,15.25
2022-10-09T12:24:48.186Z,10.50
2022-10-09T12:27:19.450Z,6.50
2022-10-09T12:29:49.422Z,5.80
2022-10-09T12:32:24.961Z,6.00
2022-10-09T12:34:54.702Z,5.40
2022-10-09T12:37:36.411Z,9.20
2022-10-09T12:40:08.828Z,5.00
2022-10-09T12:42:37.536Z,8.00
2022-10-09T12:45:06.487Z,7.00
2022-10-09T12:47:36.506Z,4.50
2022-10-09T12:50:14.039Z,8.00
2022-10-09T12:52:50.909Z,9.75
2022-10-09T12:55:25.692Z,7.00
2022-10-09T12:58:09.295Z,10.00
2022-10-09T13:00:56.978Z,10.00
2022-10-09T13:05:06.329Z,10.00
2022-10-09T13:07:21.360Z,6.25
2022-10-09T13:09:53.329Z,26.50
2022-10-09T13:12:23.620Z,11.50
2022-10-09T13:14:56.019Z,11.00
2022-10-09T13:17:26.717Z,8.50
2022-10-09T13:19:56.124Z,16.25
2022-10-09T13:22:25.224Z,14.00
2022-10-09T13:24:59.170Z,5.00
2022-10-09T13:27:43.016Z,9.75
2022-10-09T13:30:12.069Z,9.25
2022-10-09T13:32:42.117Z,8.00
2022-10-09T13:35:16.450Z,12.50
2022-10-09T13:37:48.829Z,6.75
2022-10-09T13:40:37.813Z,12.75
2022-10-09T13:46:55.716Z,9.75
2022-10-09T13:54:24.639Z,8.00
2022-10-09T13:57:17.824Z,11.25
2022-10-09T14:00:05.435Z,6.50
2022-10-09T14:03:51.681Z,9.75
2022-10-09T14:10:34.679Z,11.50
2022-10-09T14:13:10.536Z,5.25
2022-10-09T14:15:42.398Z,10.50
2022-10-09T14:18:12.031Z,13.75
2022-10-09T14:20:48.771Z,9.75
2022-10-09T14:23:19.871Z,10.25
2022-10-09T14:25:51.972Z,8.00
2022-10-09T14:28:24.507Z,9.25
2022-10-09T14:30:55.069Z,12.75
2022-10-09T14:33:29.919Z,4.75
2022-10-09T14:36:51.426Z,13.25
2022-10-09T14:39:31.246Z,6.75
2022-10-09T14:42:02.435Z,8.50
2022-10-09T14:44:32.041Z,11.00
2022-10-09T14:47:02.279Z,7.00
2022-10-09T14:49:58.802Z,6.50
2022-10-09T14:52:27.887Z,8.00
2022-10-09T14:55:07.308Z,4.50
2022-10-09T14:57:43.861Z,8.25
2022-10-09T15:00:15.763Z,7.00
2022-10-09T15:02:48.185Z,9.00
2022-10-09T15:05:41.311Z,9.00
2022-10-09T15:08:09.673Z,8.50
2022-10-09T15:10:46.509Z,6.50
2022-10-09T15:13:14.891Z,5.25
2022-10-09T15:15:43.621Z,7.50
2022-10-09T15:18:13.945Z,6.00
2022-10-09T15:21:08.990Z,6.00
2022-10-09T15:23:42.657Z,5.50
2022-10-09T15:26:11.650Z,6.75
2022-10-09T15:28:41.032Z,3.50
2022-10-09T15:31:17.667Z,7.00
2022-10-09T15:33:47.389Z,2.00
2022-10-09T15:36:15.767Z,2.25
2022-10-09T15:38:44.302Z,3.75
2022-10-09T15:41:21.238Z,2.50
2022-10-09T15:43:50.216Z,3.00
2022-10-09T15:46:18.715Z,3.50
2022-10-09T15:48:50.378Z,2.75
2022-10-09T15:51:20.113Z,2.00
2022-10-09T15:53:59.985Z,3.50
2022-10-09T15:56:40.247Z,2.00
2022-10-09T15:59:14.418Z,2.50
2022-10-09T16:01:43.713Z,2.25
2022-10-09T16:04:14.182Z,2.25
2022-10-09T16:06:42.947Z,2.00
2022-10-09T16:09:11.355Z,3.00
2022-10-09T16:16:11.727Z,2.00
2022-10-09T16:18:40.513Z,1.00
2022-10-09T16:21:11.409Z,2.25
2022-10-09T16:23:39.953Z,0.75
2022-10-09T16:26:08.577Z,5.00
2022-10-09T16:28:37.495Z,2.50
2022-10-09T16:31:06.401Z,4.25
2022-10-09T16:33:59.664Z,4.00
2022-10-09T16:36:38.415Z,6.00
2022-10-09T16:39:07.517Z,3.50
2022-10-09T16:41:39.634Z,5.50
2022-10-09T16:44:13.902Z,4.75
2022-10-09T16:46:42.588Z,6.50
2022-10-09T16:49:20.058Z,6.75
2022-10-09T16:51:53.010Z,6.00
2022-10-09T16:54:22.543Z,9.25
2022-10-09T16:56:51.241Z,7.00
2022-10-09T16:59:19.521Z,8.00
2022-10-09T17:01:51.319Z,7.75
2022-10-09T17:04:20.793Z,8.50
2022-10-09T17:06:53.905Z,11.25
2022-10-09T17:09:23.379Z,7.50
2022-10-09T17:11:51.566Z,12.75
2022-10-09T17:14:21.152Z,10.00
2022-10-09T17:16:51.136Z,13.50
2022-10-09T17:19:19.565Z,12.75
2022-10-09T17:21:50.072Z,12.50
2022-10-09T17:24:21.146Z,12.50
2022-10-09T17:26:49.512Z,12.50
2022-10-09T17:29:17.837Z,12.00
2022-10-09T17:31:46.247Z,5.25
2022-10-09T17:34:15.888Z,10.00
2022-10-09T17:36:45.874Z,12.25
2022-10-09T17:39:15.627Z,16.50
2022-10-09T17:41:47.986Z,15.75
2022-10-09T17:44:16.770Z,9.00
2022-10-09T17:46:45.256Z,12.75
2022-10-09T17:49:13.587Z,12.50
2022-10-09T17:51:56.172Z,12.00
2022-10-09T17:54:25.968Z,10.25
2022-10-09T17:56:55.610Z,13.75
2022-10-09T17:59:24.338Z,15.50
2022-10-09T18:01:53.822Z,14.75
2022-10-09T18:04:22.913Z,16.50
2022-10-09T18:06:54.030Z,14.75
2022-10-09T18:09:52.712Z,16.00
2022-10-09T18:20:56.986Z,12.75
2022-10-09T18:23:25.751Z,16.25
2022-10-09T18:25:57.638Z,16.00
2022-10-09T18:29:22.446Z,15.75
2022-10-09T18:31:58.777Z,16.50
2022-10-09T18:34:27.463Z,16.25
2022-10-09T18:40:58.331Z,15.50
2022-10-09T18:48:21.856Z,15.25
2022-10-09T18:50:58.223Z,17.75
2022-10-09T18:53:34.106Z,16.75
2022-10-09T18:56:05.931Z,16.00
2022-10-09T18:58:59.143Z,15.50
2022-10-09T19:01:27.547Z,16.00
2022-10-09T19:04:27.025Z,20.00
2022-10-09T19:06:55.926Z,17.75
2022-10-09T19:10:13.766Z,21.50
2022-10-09T19:17:41.216Z,20.75
2022-10-09T19:20:12.619Z,20.25
2022-10-09T19:22:44.352Z,20.25
2022-10-09T19:25:13.164Z,22.00
2022-10-09T19:27:41.672Z,16.25
2022-10-09T19:30:10.736Z,21.00
2022-10-09T19:32:45.042Z,20.50
2022-10-09T19:35:18.004Z,20.50
2022-10-09T19:37:46.244Z,20.50
2022-10-09T19:40:14.478Z,20.25
2022-10-09T19:42:43.161Z,21.00
2022-10-09T19:45:11.474Z,19.50
2022-10-09T19:47:41.131Z,18.00
2022-10-09T19:50:09.867Z,20.75
2022-10-09T19:53:03.504Z,16.00
2022-10-09T19:56:14.581Z,16.75
2022-10-09T19:58:42.928Z,19.75
2022-10-09T20:01:11.633Z,20.75
2022-10-09T20:03:41.887Z,21.25
2022-10-09T20:06:13.914Z,16.25
2022-10-09T20:08:43.327Z,20.00
2022-10-09T20:11:13.881Z,19.50
2022-10-09T20:13:42.948Z,20.50
2022-10-09T20:16:13.125Z,21.25
2022-10-09T20:18:46.918Z,17.50
2022-10-09T20:21:19.820Z,22.00
2022-10-09T20:23:48.151Z,20.50
2022-10-09T20:26:17.376Z,24.50
2022-10-09T20:29:08.604Z,20.00
2022-10-09T20:31:46.682Z,18.75
2022-10-09T20:34:49.641Z,16.25
2022-10-09T20:37:17.995Z,20.00
2022-10-09T20:39:49.292Z,23.25
2022-10-09T20:42:17.588Z,20.50
2022-10-09T20:44:48.029Z,16.00
2022-10-09T20:47:43.831Z,16.75
2022-10-09T20:50:17.119Z,18.00
2022-10-09T20:52:45.596Z,21.50
2022-10-09T20:55:13.973Z,21.75
2022-10-09T20:57:42.277Z,18.25
2022-10-09T21:00:13.251Z,17.75
2022-10-09T21:02:42.504Z,20.00
2022-10-09T21:05:11.033Z,15.00
2022-10-09T21:07:49.340Z,14.75
2022-10-09T21:10:17.663Z,19.75
2022-10-09T21:12:45.954Z,16.75
2022-10-09T21:15:14.528Z,16.00
2022-10-09T21:17:43.133Z,18.00
2022-10-09T21:20:11.333Z,17.75
2022-10-09T21:22:41.144Z,17.75
2022-10-09T21:25:09.975Z,15.75
2022-10-09T21:27:42.467Z,14.50
2022-10-09T21:30:12.876Z,18.50
2022-10-09T21:32:41.037Z,10.50
2022-10-09T21:35:09.518Z,11.00
2022-10-09T21:37:37.694Z,10.50
2022-10-09T21:40:08.006Z,11.75
2022-10-09T21:42:36.311Z,14.00
2022-10-09T21:45:05.180Z,14.75
2022-10-09T21:47:33.263Z,9.25
2022-10-09T21:50:01.360Z,7.25
2022-10-09T21:52:31.087Z,7.00
2022-10-09T21:54:59.236Z,10.00
2022-10-09T21:57:28.961Z,12.50
2022-10-09T21:59:57.108Z,7.75
2022-10-09T22:02:26.028Z,6.00
2022-10-09T22:04:57.323Z,12.50
2022-10-09T22:07:26.598Z,11.50
2022-10-09T22:09:54.765Z,6.75
2022-10-09T22:12:23.068Z,6.00
2022-10-09T22:14:52.665Z,7.25
2022-10-09T22:17:20.711Z,11.00
2022-10-09T22:19:48.918Z,10.00
2022-10-09T22:22:16.989Z,11.25
2022-10-09T22:24:45.123Z,12.00
2022-10-09T22:27:13.247Z,11.50
2022-10-09T22:29:41.347Z,2.75
2022-10-09T22:32:10.838Z,7.75
2022-10-09T22:34:39.005Z,7.50
2022-10-09T22:37:07.112Z,10.25
2022-10-09T22:39:35.338Z,10.25
2022-10-09T22:42:03.411Z,10.00
2022-10-09T22:44:31.539Z,7.75
2022-10-09T22:46:59.673Z,5.25
2022-10-09T22:49:29.206Z,7.75
2022-10-09T22:51:57.249Z,8.50
2022-10-09T22:54:25.416Z,5.50
2022-10-09T22:56:53.558Z,6.00
2022-10-09T22:59:21.850Z,2.00
2022-10-09T23:01:51.540Z,9.75
2022-10-09T23:04:20.598Z,10.00
2022-10-09T23:06:52.570Z,5.25
2022-10-09T23:09:20.996Z,5.50
2022-10-09T23:11:49.204Z,10.00
2022-10-09T23:14:17.393Z,6.00
2022-10-09T23:16:45.691Z,7.00
2022-10-09T23:19:13.847Z,7.75
2022-10-09T23:21:43.061Z,8.00
2022-10-09T23:24:15.415Z,6.50
2022-10-09T23:26:43.499Z,6.50
2022-10-09T23:29:14.427Z,5.50
2022-10-09T23:31:42.710Z,0.50
2022-10-09T23:34:10.831Z,6.00
2022-10-09T23:36:38.949Z,3.50
2022-10-09T23:39:07.727Z,6.00
2022-10-09T23:41:37.191Z,5.50
2022-10-09T23:44:05.259Z,5.00
2022-10-09T23:46:34.197Z,3.00
2022-10-09T23:49:02.487Z,4.00
2022-10-09T23:51:30.764Z,5.75
2022-10-09T23:53:58.907Z,6.00
2022-10-09T23:56:28.475Z,6.00
2022-10-09T23:58:59.077Z,5.00
